Time;durP1;ratioP1;P1;durP2;ratioP2;P2;SDS_P1;SDS_P2;PMS_P1;PMS_P2;Temp;Humidity;BMP_temperature;BMP_pressure;BME280_temperature;BME280_humidity;BME280_pressure;Samples;Min_cycle;Max_cycle;Signal;HPM_P1;HPM_P2
2023/09/20 00:00:11;831236.00;2.77;1435.65;68035.00;0.23;118.36;;;;;21.50;1.00;;;;;;2268174;61;1491;-88
2023/09/20 00:02:41;226323.00;0.75;391.22;0.00;0.00;0.62;;;;;21.60;1.00;;;;;;2268183;61;1102;-86
2023/09/20 00:05:14;521007.00;1.74;898.00;31826.00;0.11;55.74;;;;;21.50;1.00;;;;;;2268174;61;1119;-89
2023/09/20 00:07:41;477082.00;1.59;822.38;0.00;0.00;0.62;;;;;21.50;1.00;;;;;;2268135;61;1034;-87
2023/09/20 00:10:12;467517.00;1.56;805.92;0.00;0.00;0.62;;;;;21.60;1.00;;;;;;2268079;61;1353;-89
2023/09/20 00:12:42;337706.00;1.13;582.73;0.00;0.00;0.62;;;;;21.50;1.00;;;;;;2268213;61;1100;-88
2023/09/20 00:15:10;397892.00;1.33;686.18;0.00;0.00;0.62;;;;;21.40;1.00;;;;;;2267910;61;1285;-88
2023/09/20 00:17:37;409571.00;1.37;706.26;0.00;0.00;0.62;;;;;21.40;1.00;;;;;;2267984;61;1140;-89
2023/09/20 00:20:12;405026.00;1.35;698.45;0.00;0.00;0.62;;;;;21.40;1.00;;;;;;2268002;61;1395;-89
2023/09/20 00:22:41;218313.00;0.73;377.44;0.00;0.00;0.62;;;;;21.60;1.00;;;;;;2267871;61;2218;-91
2023/09/20 00:25:09;318236.00;1.06;549.27;0.00;0.00;0.62;;;;;21.40;1.00;;;;;;2268124;61;1016;-87
2023/09/20 00:27:36;262335.00;0.87;453.16;20070.00;0.07;35.39;;;;;21.30;1.00;;;;;;2267994;61;1506;-89
2023/09/20 00:30:06;615753.00;2.05;1061.43;73791.00;0.25;128.31;;;;;21.40;1.00;;;;;;2268109;61;1388;-88
2023/09/20 00:32:32;406155.00;1.35;700.39;54691.00;0.18;95.30;;;;;21.20;1.00;;;;;;2268099;61;1604;-89
2023/09/20 00:34:59;691213.00;2.30;1192.00;0.00;0.00;0.62;;;;;21.10;1.00;;;;;;2267990;61;1700;-88
2023/09/20 00:37:26;497235.00;1.66;857.06;0.00;0.00;0.62;;;;;21.10;1.00;;;;;;2267831;61;1580;-88
2023/09/20 00:39:54;734786.00;2.45;1267.62;118976.00;0.40;206.32;;;;;21.30;1.00;;;;;;2267964;61;1267;-88
2023/09/20 00:42:21;269028.00;0.90;464.67;0.00;0.00;0.62;;;;;21.50;1.00;;;;;;2268028;61;1930;-89
2023/09/20 00:44:48;348927.00;1.16;602.02;0.00;0.00;0.62;;;;;21.50;1.00;;;;;;2267987;61;1071;-90
2023/09/20 00:47:16;226216.00;0.75;391.04;0.00;0.00;0.62;;;;;21.60;1.00;;;;;;2268025;61;1060;-86
2023/09/20 00:49:45;345807.00;1.15;596.65;0.00;0.00;0.62;;;;;21.60;1.00;;;;;;2267969;61;1379;-88
2023/09/20 00:52:14;243357.00;0.81;420.53;0.00;0.00;0.62;;;;;21.50;1.00;;;;;;2268029;61;1189;-88
2023/09/20 00:54:42;506582.00;1.69;873.16;27162.00;0.09;47.67;;;;;21.30;1.00;;;;;;2267945;61;995;-88
2023/09/20 00:57:11;603941.00;2.01;1041.03;0.00;0.00;0.62;;;;;20.90;1.00;;;;;;2267960;61;1079;-88
2023/09/20 00:59:40;289887.00;0.97;500.54;0.00;0.00;0.62;;;;;21.30;1.00;;;;;;2267874;61;1387;-87
2023/09/20 01:02:07;241206.00;0.80;416.83;0.00;0.00;0.62;;;;;21.40;1.00;;;;;;2267981;61;1927;-87
2023/09/20 01:04:36;409411.00;1.36;705.98;0.00;0.00;0.62;;;;;21.30;1.00;;;;;;2267911;61;1036;-91
2023/09/20 01:07:04;290332.00;0.97;501.30;6480.00;0.02;11.85;;;;;21.20;1.00;;;;;;2267966;61;1617;-89
2023/09/20 01:09:31;361479.00;1.20;623.59;0.00;0.00;0.62;;;;;20.80;1.00;;;;;;2267969;61;1430;-89
2023/09/20 01:11:58;356711.00;1.19;615.40;0.00;0.00;0.62;;;;;21.10;1.00;;;;;;2267856;61;1669;-86
2023/09/20 01:14:27;388083.00;1.29;669.32;27164.00;0.09;47.67;;;;;21.20;1.00;;;;;;2267955;61;1131;-85
2023/09/20 01:16:54;281306.00;0.94;485.78;0.00;0.00;0.62;;;;;21.30;1.00;;;;;;2267913;61;1240;-86
2023/09/20 01:19:21;482465.00;1.61;831.64;0.00;0.00;0.62;;;;;21.10;1.00;;;;;;2267904;61;1340;-86
2023/09/20 01:21:49;459302.00;1.53;791.78;0.00;0.00;0.62;;;;;21.20;1.00;;;;;;2267779;61;1915;-89
2023/09/20 01:24:20;407077.00;1.36;701.97;0.00;0.00;0.62;;;;;21.20;1.00;;;;;;2267839;61;1166;-86
2023/09/20 01:26:50;526890.00;1.76;908.13;8441.00;0.03;15.25;;;;;21.30;1.00;;;;;;2267839;61;1652;-87
2023/09/20 01:29:16;333893.00;1.11;576.18;1850.00;0.01;3.83;;;;;21.40;1.00;;;;;;2267950;61;1275;-88
2023/09/20 01:31:43;298942.00;1.00;516.10;0.00;0.00;0.62;;;;;21.40;1.00;;;;;;2267814;61;1520;-88
2023/09/20 01:34:10;581912.00;1.94;1003.00;0.00;0.00;0.62;;;;;21.30;1.00;;;;;;2267648;61;1569;-87
2023/09/20 01:36:37;138855.00;0.46;240.60;14947.00;0.05;26.52;;;;;21.30;1.00;;;;;;2267780;61;1093;-86
2023/09/20 01:39:08;516333.00;1.72;889.95;0.00;0.00;0.62;;;;;20.90;1.00;;;;;;2267700;61;1582;-86
2023/09/20 01:41:35;342355.00;1.14;590.72;0.00;0.00;0.62;;;;;20.70;1.00;;;;;;2267842;61;1923;-87
2023/09/20 01:44:03;519789.00;1.73;895.90;0.00;0.00;0.62;;;;;20.90;1.00;;;;;;2267895;61;876;-87
2023/09/20 01:46:30;474086.00;1.58;817.22;0.00;0.00;0.62;;;;;20.90;1.00;;;;;;2267739;61;1778;-86
2023/09/20 01:48:58;339120.00;1.13;585.16;14801.00;0.05;26.27;;;;;20.80;1.00;;;;;;2267812;61;1383;-88
2023/09/20 01:51:25;163806.00;0.55;283.60;0.00;0.00;0.62;;;;;20.70;1.00;;;;;;2267886;61;1159;-88
2023/09/20 01:53:52;184166.00;0.61;318.66;0.00;0.00;0.62;;;;;21.00;1.00;;;;;;2267929;61;1047;-86
2023/09/20 01:56:21;250130.00;0.83;432.17;0.00;0.00;0.62;;;;;21.20;1.00;;;;;;2267846;61;1675;-87
2023/09/20 01:58:49;406625.00;1.36;701.19;9250.00;0.03;16.65;;;;;21.40;1.00;;;;;;2267795;61;1153;-86
2023/09/20 02:01:17;279926.00;0.93;483.41;0.00;0.00;0.62;;;;;21.40;1.00;;;;;;2267645;61;2005;-87
2023/09/20 02:03:43;589368.00;1.96;1015.87;13050.00;0.04;23.23;;;;;21.30;1.00;;;;;;2267601;61;1087;-89
2023/09/20 02:06:11;561501.00;1.87;967.79;0.00;0.00;0.62;;;;;21.20;1.00;;;;;;2267837;61;1129;-89
2023/09/20 02:08:37;231964.00;0.77;400.93;0.00;0.00;0.62;;;;;21.00;1.00;;;;;;2267882;61;1084;-87
2023/09/20 02:11:04;452667.00;1.51;780.37;0.00;0.00;0.62;;;;;20.90;1.00;;;;;;2267807;61;1378;-85
2023/09/20 02:13:33;193017.00;0.64;333.90;0.00;0.00;0.62;;;;;20.90;1.00;;;;;;2267753;61;1484;-87
2023/09/20 02:16:00;199928.00;0.67;345.80;0.00;0.00;0.62;;;;;20.90;1.00;;;;;;2267835;61;1099;-87
2023/09/20 02:18:27;188214.00;0.63;325.63;0.00;0.00;0.62;;;;;20.90;1.00;;;;;;2267812;61;1123;-89
2023/09/20 02:20:55;415096.00;1.38;715.76;0.00;0.00;0.62;;;;;20.90;1.00;;;;;;2267759;61;2008;-86
2023/09/20 02:23:22;330331.00;1.10;570.05;0.00;0.00;0.62;;;;;21.00;1.00;;;;;;2267769;61;1060;-88
2023/09/20 02:25:49;318778.00;1.06;550.20;0.00;0.00;0.62;;;;;20.90;1.00;;;;;;2267718;61;1450;-89
2023/09/20 02:28:16;558759.00;1.86;963.06;12144.00;0.04;21.66;;;;;20.70;1.00;;;;;;2267645;61;1112;-88
2023/09/20 02:30:45;754169.00;2.51;1301.31;72040.00;0.24;125.29;;;;;20.80;1.00;;;;;;2267690;61;1274;-89
2023/09/20 02:33:14;703426.00;2.34;1213.18;64020.00;0.21;111.43;;;;;21.00;1.00;;;;;;2267630;61;1088;-89
2023/09/20 02:35:41;517468.00;1.72;891.90;83169.00;0.28;144.51;;;;;20.80;1.00;;;;;;2264130;61;1427;-87
2023/09/20 02:38:09;702436.00;2.34;1211.46;72896.00;0.24;126.76;;;;;20.80;1.00;;;;;;2267607;61;949;-90
2023/09/20 02:40:36;659912.00;2.20;1137.79;75711.00;0.25;131.63;;;;;20.70;1.00;;;;;;2267562;61;1262;-87
2023/09/20 02:43:04;498442.00;1.66;859.14;79040.00;0.26;137.38;;;;;20.10;1.00;;;;;;2267540;61;2025;-89
2023/09/20 02:45:33;454442.00;1.51;783.42;6296.00;0.02;11.53;;;;;20.30;1.00;;;;;;2267545;61;1120;-88
2023/09/20 02:48:03;466497.00;1.55;804.16;24349.00;0.08;42.80;;;;;20.70;1.00;;;;;;2268277;61;1153;-89
2023/09/20 02:50:30;320214.00;1.07;552.67;0.00;0.00;0.62;;;;;20.90;1.00;;;;;;2268412;61;1434;-88
2023/09/20 02:52:58;519067.00;1.73;894.66;0.00;0.00;0.62;;;;;21.20;1.00;;;;;;2268340;61;1615;-87
2023/09/20 02:55:27;441757.00;1.47;761.60;0.00;0.00;0.62;;;;;20.60;1.00;;;;;;2268305;61;1114;-87
2023/09/20 02:57:54;305829.00;1.02;527.94;0.00;0.00;0.62;;;;;20.10;1.00;;;;;;2268260;61;997;-89
2023/09/20 03:00:27;390141.00;1.30;672.86;0.00;0.00;0.62;;;;;19.80;1.00;;;;;;2268181;61;1828;-86
2023/09/20 03:02:56;582800.00;1.94;1004.53;41541.00;0.14;72.55;;;;;19.90;1.00;;;;;;2268501;61;1989;-87
2023/09/20 03:05:28;296924.00;0.99;512.63;0.00;0.00;0.62;;;;;19.90;1.00;;;;;;2268642;61;1211;-87
2023/09/20 03:07:56;300826.00;1.00;519.34;0.00;0.00;0.62;;;;;19.70;1.00;;;;;;2268637;61;1546;-88
2023/09/20 03:10:25;300463.00;1.00;518.72;0.00;0.00;0.62;;;;;19.40;1.00;;;;;;2268579;61;1386;-88
2023/09/20 03:12:57;210149.00;0.70;363.39;0.00;0.00;0.62;;;;;19.20;1.00;;;;;;2268684;61;1119;-87
2023/09/20 03:15:25;185363.00;0.62;320.72;27147.00;0.09;47.64;;;;;19.20;1.00;;;;;;2268491;61;1018;-89
2023/09/20 03:17:53;201906.00;0.67;349.20;0.00;0.00;0.62;;;;;19.30;1.00;;;;;;2268594;61;1124;-89
2023/09/20 03:20:24;431025.00;1.44;743.15;0.00;0.00;0.62;;;;;19.70;1.00;;;;;;2268581;61;1395;-89
2023/09/20 03:22:54;305767.00;1.02;527.83;0.00;0.00;0.62;;;;;19.80;1.00;;;;;;2268584;61;2001;-87
2023/09/20 03:25:22;260536.00;0.87;450.07;0.00;0.00;0.62;;;;;19.80;1.00;;;;;;2268658;61;1127;-88
2023/09/20 03:27:49;306828.00;1.02;529.66;0.00;0.00;0.62;;;;;19.50;1.00;;;;;;2268572;61;1092;-87
2023/09/20 03:30:20;393502.00;1.31;678.63;0.00;0.00;0.62;;;;;19.20;1.00;;;;;;2268541;61;1489;-88
2023/09/20 03:32:46;265580.00;0.89;458.74;0.00;0.00;0.62;;;;;18.90;1.00;;;;;;2268675;61;974;-88
2023/09/20 03:35:14;445079.00;1.48;767.32;56100.00;0.19;97.73;;;;;19.10;1.00;;;;;;2268588;61;1032;-88
2023/09/20 03:37:43;315997.00;1.05;545.42;0.00;0.00;0.62;;;;;19.60;1.00;;;;;;2268599;61;1174;-88
2023/09/20 03:40:17;184456.00;0.61;319.16;0.00;0.00;0.62;;;;;19.80;1.00;;;;;;2268478;61;1396;-86
2023/09/20 03:42:46;177919.00;0.59;307.91;0.00;0.00;0.62;;;;;19.90;1.00;;;;;;2268272;61;2498;-87
2023/09/20 03:45:14;119453.00;0.40;207.14;0.00;0.00;0.62;;;;;20.30;1.00;;;;;;2268441;61;2218;-87
2023/09/20 03:47:42;295614.00;0.99;510.38;0.00;0.00;0.62;;;;;20.10;1.00;;;;;;2268443;61;952;-87
2023/09/20 03:50:10;243440.00;0.81;420.67;9026.00;0.03;16.26;;;;;20.10;1.00;;;;;;2268308;61;1400;-88
2023/09/20 03:52:37;244067.00;0.81;421.75;0.00;0.00;0.62;;;;;20.00;1.00;;;;;;2268434;61;1092;-88
2023/09/20 03:55:04;349002.00;1.16;602.15;17984.00;0.06;31.78;;;;;19.60;1.00;;;;;;2268478;61;1437;-86
2023/09/20 03:57:33;318514.00;1.06;549.74;0.00;0.00;0.62;;;;;19.60;1.00;;;;;;2268453;61;967;-87
2023/09/20 04:00:00;286623.00;0.96;494.92;0.00;0.00;0.62;;;;;19.70;1.00;;;;;;2268355;61;1312;-88
2023/09/20 04:02:29;304825.00;1.02;526.21;0.00;0.00;0.62;;;;;19.90;1.00;;;;;;2268429;61;1912;-88
2023/09/20 04:04:56;436710.00;1.46;752.92;0.00;0.00;0.62;;;;;19.60;1.00;;;;;;2268377;61;1059;-88
2023/09/20 04:07:23;365382.00;1.22;630.30;0.00;0.00;0.62;;;;;19.10;1.00;;;;;;2268392;61;1779;-86
2023/09/20 04:09:50;303246.00;1.01;523.50;0.00;0.00;0.62;;;;;19.00;1.00;;;;;;2268448;61;1401;-89
2023/09/20 04:12:17;423806.00;1.41;730.73;0.00;0.00;0.62;;;;;19.00;1.00;;;;;;2268438;61;1427;-86
2023/09/20 04:14:45;424131.00;1.41;731.29;0.00;0.00;0.62;;;;;18.90;1.00;;;;;;2268465;61;1093;-88
2023/09/20 04:17:12;144201.00;0.48;249.81;0.00;0.00;0.62;;;;;19.30;1.00;;;;;;2268381;61;998;-88
2023/09/20 04:19:39;603262.00;2.01;1039.85;71331.00;0.24;124.06;;;;;19.50;1.00;;;;;;2268393;61;1343;-88
2023/09/20 04:22:06;587297.00;1.96;1012.29;106500.00;0.35;184.79;;;;;19.30;1.00;;;;;;2268462;61;1923;-88
2023/09/20 04:24:33;505079.00;1.68;870.57;74641.00;0.25;129.78;;;;;19.20;1.00;;;;;;2268449;61;995;-88
2023/09/20 04:27:01;548531.00;1.83;945.43;114508.00;0.38;198.61;;;;;19.20;1.00;;;;;;2268391;61;1119;-88
2023/09/20 04:29:27;360523.00;1.20;621.95;67559.00;0.23;117.54;;;;;19.60;1.00;;;;;;2268402;61;1248;-88
2023/09/20 04:31:56;473305.00;1.58;815.88;74167.00;0.25;128.96;;;;;19.60;1.00;;;;;;2268359;61;1070;-88
2023/09/20 04:34:23;648353.00;2.16;1117.79;92713.00;0.31;160.99;;;;;19.80;1.00;;;;;;2268318;61;1742;-89
2023/09/20 04:39:25;311723.00;1.04;538.07;70096.00;0.23;121.93;;;;;19.70;1.00;;;;;;1808473;55;3350;-87
2023/09/20 04:41:53;245143.00;0.82;423.60;88112.00;0.29;153.05;;;;;19.70;1.00;;;;;;2268112;61;1915;-86
2023/09/20 04:46:48;363908.00;1.21;627.77;77723.00;0.26;135.10;;;;;19.70;1.00;;;;;;2274075;61;1376;-87
2023/09/20 04:49:19;285270.00;0.95;492.60;72859.00;0.24;126.70;;;;;19.50;1.00;;;;;;2272251;61;1323;-88
2023/09/20 04:51:46;247401.00;0.82;427.48;70424.00;0.23;122.49;;;;;19.40;1.00;;;;;;2272293;61;1176;-88
2023/09/20 04:54:14;412014.00;1.37;710.46;140078.00;0.47;242.71;;;;;19.20;1.00;;;;;;2272215;61;1118;-88
2023/09/20 04:56:47;225360.00;0.75;389.57;79639.00;0.27;138.41;;;;;18.90;1.00;;;;;;2272311;61;1238;-88
2023/09/20 04:59:14;204028.00;0.68;352.86;82711.00;0.28;143.72;;;;;18.70;1.00;;;;;;2272213;61;1479;-89
2023/09/20 05:01:42;399085.00;1.33;688.23;95828.00;0.32;166.37;;;;;18.90;1.00;;;;;;2272132;61;1063;-88
2023/09/20 05:04:13;177223.00;0.59;306.71;75140.00;0.25;130.64;;;;;18.90;1.00;;;;;;2272215;61;1139;-89
2023/09/20 05:06:41;239587.00;0.80;414.04;65846.00;0.22;114.58;;;;;19.10;1.00;;;;;;2278237;40;3581;-88
2023/09/20 05:09:08;197319.00;0.66;341.31;80656.00;0.27;140.17;;;;;18.90;1.00;;;;;;2273119;40;3598;-86
2023/09/20 05:11:35;417197.00;1.39;719.37;81770.00;0.27;142.09;;;;;18.80;1.00;;;;;;2268150;61;1581;-88
2023/09/20 05:14:05;310076.00;1.03;535.24;68167.00;0.23;118.59;;;;;19.20;1.00;;;;;;2268249;61;1120;-89
2023/09/20 05:16:32;795699.00;2.65;1373.62;163936.00;0.55;283.82;;;;;19.40;1.00;;;;;;2268242;61;1154;-88
2023/09/20 05:18:59;515538.00;1.72;888.58;130475.00;0.43;226.15;;;;;19.10;1.00;;;;;;2268170;61;1363;-87
2023/09/20 05:21:26;490523.00;1.64;845.51;74162.00;0.25;128.95;;;;;18.80;1.00;;;;;;2284164;40;3587;-86
2023/09/20 05:24:06;301058.00;1.00;519.74;85212.00;0.28;148.04;;;;;18.00;1.00;;;;;;2268256;61;2017;-87
2023/09/20 05:26:35;250307.00;0.83;432.48;80507.00;0.27;139.91;;;;;17.50;1.00;;;;;;2269842;55;3738;-86
2023/09/20 05:29:03;439192.00;1.46;757.19;89329.00;0.30;155.15;;;;;17.50;1.00;;;;;;2268026;61;1396;-86
2023/09/20 05:31:32;250835.00;0.84;433.39;89460.00;0.30;155.38;;;;;17.80;1.00;;;;;;2268127;61;1104;-86
2023/09/20 05:33:59;204756.00;0.68;354.11;78034.00;0.26;135.64;;;;;18.30;1.00;;;;;;2268165;61;1103;-85
2023/09/20 05:36:27;324289.00;1.08;559.67;85336.00;0.28;148.25;;;;;19.10;1.00;;;;;;2268171;61;1169;-86
2023/09/20 05:38:54;184494.00;0.61;319.23;71499.00;0.24;124.35;;;;;20.00;1.00;;;;;;2268150;61;1356;-86
2023/09/20 05:41:22;246830.00;0.82;426.50;71712.00;0.24;124.72;;;;;20.60;1.00;;;;;;2268160;61;1033;-88
2023/09/20 05:43:49;380630.00;1.27;656.51;102194.00;0.34;177.36;;;;;21.20;1.00;;;;;;2268040;61;2002;-88
2023/09/20 05:46:16;358866.00;1.20;619.10;73327.00;0.24;127.51;;;;;21.80;1.00;;;;;;2268085;61;903;-87
2023/09/20 05:48:44;227832.00;0.76;393.82;75629.00;0.25;131.49;;;;;22.20;1.00;;;;;;2268039;61;1331;-87
2023/09/20 05:51:14;230729.00;0.77;398.80;71931.00;0.24;125.10;;;;;23.00;1.00;;;;;;2267924;61;1187;-87
2023/09/20 05:53:41;300927.00;1.00;519.51;54702.00;0.18;95.32;;;;;23.60;1.00;;;;;;2267971;61;1231;-84
2023/09/20 05:56:11;310822.00;1.04;536.52;66168.00;0.22;115.14;;;;;23.60;1.00;;;;;;2267998;61;1118;-87
2023/09/20 05:58:40;375748.00;1.25;648.12;72799.00;0.24;126.60;;;;;23.20;1.00;;;;;;2268023;61;1270;-86
2023/09/20 06:01:09;226317.00;0.75;391.21;70524.00;0.24;122.67;;;;;23.30;1.00;;;;;;2268101;61;1388;-88
2023/09/20 06:03:36;320484.00;1.07;553.13;74592.00;0.25;129.69;;;;;24.30;1.00;;;;;;2267837;61;2008;-86
2023/09/20 06:06:04;237481.00;0.79;410.42;68606.00;0.23;119.35;;;;;25.40;1.00;;;;;;2268029;61;1739;-86
2023/09/20 06:08:31;200464.00;0.67;346.72;62587.00;0.21;108.95;;;;;26.10;1.00;;;;;;2267961;61;1005;-88
2023/09/20 06:10:58;396959.00;1.32;684.58;94353.00;0.31;163.82;;;;;25.90;1.00;;;;;;2267903;61;1219;-88
2023/09/20 06:13:25;406445.00;1.35;700.89;70970.00;0.24;123.44;;;;;26.00;1.00;;;;;;2267863;61;1586;-88
2023/09/20 06:15:53;418474.00;1.39;721.57;76873.00;0.26;133.64;;;;;26.40;1.00;;;;;;2267923;61;1133;-87
2023/09/20 06:18:19;272471.00;0.91;470.59;70259.00;0.23;122.21;;;;;26.30;1.00;;;;;;2267925;61;1179;-86
2023/09/20 06:20:50;416432.00;1.39;718.06;64574.00;0.22;112.38;;;;;26.90;1.00;;;;;;2267954;61;1402;-88
2023/09/20 06:23:18;427863.00;1.43;737.71;75539.00;0.25;131.33;;;;;27.10;1.00;;;;;;2268499;61;1918;-90
2023/09/20 06:25:47;453789.00;1.51;782.30;68139.00;0.23;118.54;;;;;27.20;1.00;;;;;;2268627;61;1025;-87
2023/09/20 06:28:15;419006.00;1.40;722.48;59482.00;0.20;103.58;;;;;27.00;1.00;;;;;;2268342;61;1268;-86
2023/09/20 06:30:42;385825.00;1.29;665.44;69199.00;0.23;120.38;;;;;26.60;1.00;;;;;;2268356;61;1275;-86
2023/09/20 06:33:10;553873.00;1.85;954.64;71495.00;0.24;124.34;;;;;27.60;1.00;;;;;;2268284;61;976;-88
2023/09/20 06:35:40;808900.00;2.70;1396.65;84661.00;0.28;147.09;;;;;28.00;1.00;;;;;;2268635;61;1080;-86
2023/09/20 06:38:09;576971.00;1.92;994.47;92573.00;0.31;160.75;;;;;28.30;1.00;;;;;;2268583;61;1084;-86
2023/09/20 06:40:38;448092.00;1.49;772.50;72432.00;0.24;125.96;;;;;27.90;1.00;;;;;;2268489;61;1286;-88
2023/09/20 06:43:07;351425.00;1.17;606.31;65490.00;0.22;113.97;;;;;27.60;1.00;;;;;;2268515;61;2006;-86
2023/09/20 06:45:34;230916.00;0.77;399.12;0.00;0.00;0.62;;;;;27.50;1.00;;;;;;2268595;61;1068;-88
2023/09/20 06:48:02;491839.00;1.64;847.77;0.00;0.00;0.62;;;;;27.60;1.00;;;;;;2268575;61;1044;-87
2023/09/20 06:50:30;666274.00;2.22;1148.80;83027.00;0.28;144.27;;;;;27.80;1.00;;;;;;2268354;61;1401;-87
2023/09/20 06:52:57;446564.00;1.49;769.87;57244.00;0.19;99.71;;;;;28.70;1.00;;;;;;2268578;61;1168;-88
2023/09/20 06:55:25;339120.00;1.13;585.16;67225.00;0.22;116.96;;;;;28.60;1.00;;;;;;2268522;61;1305;-87
2023/09/20 06:57:52;349704.00;1.17;603.35;91589.00;0.31;159.05;;;;;28.50;1.00;;;;;;2268396;61;1557;-88
2023/09/20 07:00:24;484546.00;1.62;835.22;68957.00;0.23;119.96;;;;;29.10;1.00;;;;;;2268635;61;2039;-85
2023/09/20 07:02:52;476666.00;1.59;821.66;14064.00;0.05;24.99;;;;;29.40;1.00;;;;;;2268436;61;1907;-87
2023/09/20 07:05:21;401806.00;1.34;692.91;0.00;0.00;0.62;;;;;29.70;1.00;;;;;;2268506;61;1331;-87
2023/09/20 07:07:49;405932.00;1.35;700.00;12808.00;0.04;22.81;;;;;29.60;1.00;;;;;;2268478;61;1083;-87
2023/09/20 07:10:16;560741.00;1.87;966.48;29797.00;0.10;52.23;;;;;29.60;1.00;;;;;;2268526;61;1266;-87
2023/09/20 07:12:44;321949.00;1.07;555.65;11764.00;0.04;21.01;;;;;29.40;1.00;;;;;;2268689;61;1043;-89
2023/09/20 07:15:14;551621.00;1.84;950.75;39726.00;0.13;69.41;;;;;29.80;1.00;;;;;;2268515;61;1303;-89
2023/09/20 07:17:42;329017.00;1.10;567.80;0.00;0.00;0.62;;;;;29.60;1.00;;;;;;2268474;61;1120;-87
2023/09/20 07:20:14;312262.00;1.04;539.00;0.00;0.00;0.62;;;;;29.60;1.00;;;;;;2268469;61;1333;-86
2023/09/20 07:22:45;554309.00;1.85;955.39;69800.00;0.23;121.41;;;;;29.00;1.00;;;;;;2268525;61;1908;-88
2023/09/20 07:25:19;602255.00;2.01;1038.11;76701.00;0.26;133.34;;;;;29.40;1.00;;;;;;2268325;61;1672;-86
2023/09/20 07:27:47;228332.00;0.76;394.68;0.00;0.00;0.62;;;;;29.80;1.00;;;;;;2268365;61;1122;-87
2023/09/20 07:30:17;355324.00;1.18;613.01;0.00;0.00;0.62;;;;;29.40;1.00;;;;;;2268478;61;1302;-88
2023/09/20 07:32:46;153381.00;0.51;265.63;0.00;0.00;0.62;;;;;30.10;1.00;;;;;;2268133;61;1594;-87
2023/09/20 07:35:26;312713.00;1.04;539.77;0.00;0.00;0.62;;;;;29.30;1.00;;;;;;2268400;61;1197;-88
2023/09/20 07:37:56;346021.00;1.15;597.02;0.00;0.00;0.62;;;;;28.80;1.00;;;;;;2268527;61;1123;-86
2023/09/20 07:40:28;134427.00;0.45;232.96;0.00;0.00;0.62;;;;;29.50;1.00;;;;;;2268165;61;1419;-85
2023/09/20 07:42:59;179483.00;0.60;310.60;0.00;0.00;0.62;;;;;30.10;1.00;;;;;;2268279;61;2025;-86
2023/09/20 07:47:55;1102505.00;3.68;1914.90;0.00;0.00;0.62;;;;;29.20;1.00;;;;;;2270335;61;1625;-85
2023/09/20 07:50:22;422124.00;1.41;727.84;0.00;0.00;0.62;;;;;28.20;1.00;;;;;;2268339;61;1303;-86
2023/09/20 07:52:50;722901.00;2.41;1246.97;35603.00;0.12;62.28;;;;;27.70;1.00;;;;;;2268210;61;1091;-86
2023/09/20 07:55:18;212379.00;0.71;367.23;0.00;0.00;0.62;;;;;27.00;1.00;;;;;;2268221;61;1704;-89
2023/09/20 07:57:46;324259.00;1.08;559.62;0.00;0.00;0.62;;;;;26.80;1.00;;;;;;2268446;61;1126;-88
2023/09/20 08:00:15;439909.00;1.47;758.43;82149.00;0.27;142.75;;;;;26.40;1.00;;;;;;2268489;61;1737;-88
2023/09/20 08:02:46;130448.00;0.43;226.10;0.00;0.00;0.62;;;;;26.10;1.00;;;;;;2268466;61;2000;-89
2023/09/20 08:05:14;213779.00;0.71;369.64;0.00;0.00;0.62;;;;;27.20;1.00;;;;;;2268557;61;1277;-88
2023/09/20 08:07:41;194021.00;0.65;335.63;0.00;0.00;0.62;;;;;27.00;1.00;;;;;;2268408;61;2043;-88
2023/09/20 08:10:08;496646.00;1.66;856.05;67357.00;0.22;117.19;;;;;27.40;1.00;;;;;;2268417;61;1396;-88
2023/09/20 08:12:35;577193.00;1.92;994.86;75347.00;0.25;131.00;;;;;27.50;1.00;;;;;;2268358;61;1759;-89
2023/09/20 08:15:04;549044.00;1.83;946.31;70877.00;0.24;123.28;;;;;27.70;1.00;;;;;;2268428;61;1654;-88
2023/09/20 08:20:21;168700.00;0.56;292.03;0.00;0.00;0.62;;;;;28.00;1.00;;;;;;2268527;61;1444;-88
2023/09/20 09:01:36;70327.00;0.23;122.33;0.00;0.00;0.62;;;;;26.80;1.00;;;;;;2276536;61;650;-89
2023/09/20 09:04:07;240055.00;0.80;414.85;72006.00;0.24;125.23;;;;;26.60;1.00;;;;;;2276378;61;1923;-88
2023/09/20 09:06:34;420472.00;1.40;725.00;47949.00;0.16;83.64;;;;;26.80;1.00;;;;;;2276491;61;925;-88
2023/09/20 09:09:02;496581.00;1.66;855.94;58779.00;0.20;102.37;;;;;26.40;1.00;;;;;;2276434;61;1362;-89
2023/09/20 09:11:29;443849.00;1.48;765.20;9113.00;0.03;16.41;;;;;26.50;1.00;;;;;;2276456;61;1722;-88
2023/09/20 09:13:57;223699.00;0.75;386.71;0.00;0.00;0.62;;;;;27.00;1.00;;;;;;2276423;61;988;-88
2023/09/20 09:16:25;373380.00;1.24;644.05;0.00;0.00;0.62;;;;;27.00;1.00;;;;;;2276377;61;2174;-89
2023/09/20 09:18:51;398864.00;1.33;687.85;0.00;0.00;0.62;;;;;27.00;1.00;;;;;;2276343;61;1683;-86
2023/09/20 09:21:22;381209.00;1.27;657.50;0.00;0.00;0.62;;;;;27.20;1.00;;;;;;2276388;61;1550;-88
2023/09/20 09:23:49;170619.00;0.57;295.33;0.00;0.00;0.62;;;;;26.90;1.00;;;;;;2276339;61;2087;-87
2023/09/20 09:26:17;415248.00;1.38;716.02;0.00;0.00;0.62;;;;;26.70;1.00;;;;;;2276441;61;1012;-88
2023/09/20 09:28:46;156030.00;0.52;270.20;0.00;0.00;0.62;;;;;26.60;1.00;;;;;;2276459;61;1214;-90
2023/09/20 09:31:14;267864.00;0.89;462.67;0.00;0.00;0.62;;;;;26.80;1.00;;;;;;2276393;61;1190;-88
2023/09/20 09:33:42;114814.00;0.38;199.14;0.00;0.00;0.62;;;;;26.60;1.00;;;;;;2276395;61;1035;-88
2023/09/20 09:36:12;395200.00;1.32;681.55;0.00;0.00;0.62;;;;;26.70;1.00;;;;;;2276384;61;2255;-88
2023/09/20 09:38:41;417001.00;1.39;719.03;14238.00;0.05;25.29;;;;;27.00;1.00;;;;;;2276392;61;1114;-88
2023/09/20 09:41:08;639608.00;2.13;1102.66;0.00;0.00;0.62;;;;;27.10;1.00;;;;;;2276346;61;1290;-87
2023/09/20 09:43:37;192110.00;0.64;332.34;64788.00;0.22;112.75;;;;;26.90;1.00;;;;;;2276290;61;2004;-89
2023/09/20 09:46:08;347122.00;1.16;598.91;64855.00;0.22;112.87;;;;;26.80;1.00;;;;;;2276334;61;1083;-88
2023/09/20 09:48:37;511184.00;1.70;881.08;66045.00;0.22;114.93;;;;;26.60;1.00;;;;;;2276343;61;1542;-88
2023/09/20 09:51:06;631700.00;2.11;1088.99;82631.00;0.28;143.58;;;;;26.90;1.00;;;;;;2276271;61;2093;-89
2023/09/20 09:53:35;460424.00;1.53;793.71;68319.00;0.23;118.86;;;;;27.00;1.00;;;;;;2300752;40;3650;-89
2023/09/20 09:56:07;217876.00;0.73;376.69;58556.00;0.20;101.98;;;;;27.30;1.00;;;;;;2273276;61;1119;-90
2023/09/20 09:58:34;447368.00;1.49;771.26;64079.00;0.21;111.53;;;;;27.30;1.00;;;;;;2273545;61;1790;-87
2023/09/20 10:01:05;454674.00;1.52;783.82;68111.00;0.23;118.50;;;;;27.10;1.00;;;;;;2273474;61;1300;-89
2023/09/20 10:03:34;507411.00;1.69;874.58;61883.00;0.21;107.73;;;;;26.90;1.00;;;;;;2273505;61;2000;-90
2023/09/20 10:06:10;376265.00;1.25;649.01;67796.00;0.23;117.95;;;;;27.10;1.00;;;;;;2273433;61;1619;-89
2023/09/20 10:08:39;477274.00;1.59;822.71;105546.00;0.35;183.14;;;;;27.30;1.00;;;;;;2273659;61;1074;-90
2023/09/20 10:11:09;760630.00;2.54;1312.55;96398.00;0.32;167.35;;;;;27.10;1.00;;;;;;2273480;61;1393;-88
2023/09/20 10:13:38;120492080.00;401.64;70865472.00;72807.00;0.24;126.61;;;;;26.90;1.00;;;;;;2273399;61;1030;-90
2023/09/20 10:16:10;601478.00;2.00;1036.77;69279.00;0.23;120.51;;;;;26.90;1.00;;;;;;2273033;61;1013;-89
2023/09/20 10:18:55;807549.00;2.69;1394.29;114047.00;0.38;197.81;;;;;27.10;1.00;;;;;;2273492;61;1228;-89
2023/09/20 10:21:23;272373.00;0.91;470.42;15509.00;0.05;27.49;;;;;27.20;1.00;;;;;;2273527;61;1124;-87
2023/09/20 10:23:54;220721.00;0.74;381.58;0.00;0.00;0.62;;;;;27.60;1.00;;;;;;2273376;61;1994;-89
2023/09/20 10:26:22;413612.00;1.38;713.21;2954.00;0.01;5.74;;;;;27.80;1.00;;;;;;2273404;61;1665;-88
2023/09/20 10:28:53;442186.00;1.47;762.34;0.00;0.00;0.62;;;;;27.30;1.00;;;;;;2273466;61;1003;-89
2023/09/20 10:31:21;145461.00;0.48;251.98;0.00;0.00;0.62;;;;;27.20;1.00;;;;;;2273448;61;1032;-89
2023/09/20 10:33:52;399533.00;1.33;689.00;67875.00;0.23;118.09;;;;;27.30;1.00;;;;;;2273423;61;1780;-89